sensor_id;sensor_type;location;lat;lon;timestamp;pressure;altitude;pressure_sealevel;temperature;humidity
63956;BME280;50131;52.084;5.228;2022-07-23T00:00:12;102036.0;;;16.45;79.52
63956;BME280;50131;52.084;5.228;2022-07-23T00:01:59;102036.0;;;16.38;78.48
63956;BME280;50131;52.084;5.228;2022-07-23T00:03:45;102034.0;;;16.32;79.28
63956;BME280;50131;52.084;5.228;2022-07-23T00:05:31;102033.0;;;16.31;79.27
63956;BME280;50131;52.084;5.228;2022-07-23T00:09:04;102035.0;;;16.25;78.89
63956;BME280;50131;52.084;5.228;2022-07-23T00:10:51;102041.0;;;16.2;78.98
63956;BME280;50131;52.084;5.228;2022-07-23T00:12:38;102039.0;;;16.2;79.92
63956;BME280;50131;52.084;5.228;2022-07-23T00:14:25;102037.0;;;16.12;80.87
63956;BME280;50131;52.084;5.228;2022-07-23T00:16:11;102038.0;;;16.11;82.36
63956;BME280;50131;52.084;5.228;2022-07-23T00:17:57;102041.0;;;16.15;81.47
63956;BME280;50131;52.084;5.228;2022-07-23T00:21:31;102035.0;;;16.23;81.0
63956;BME280;50131;52.084;5.228;2022-07-23T00:23:17;102036.0;;;16.13;81.55
63956;BME280;50131;52.084;5.228;2022-07-23T00:25:04;102038.0;;;16.04;81.92
63956;BME280;50131;52.084;5.228;2022-07-23T00:26:50;102031.0;;;16.0;84.11
63956;BME280;50131;52.084;5.228;2022-07-23T00:28:36;102031.0;;;15.98;84.01
63956;BME280;50131;52.084;5.228;2022-07-23T00:32:10;102030.0;;;16.02;83.38
63956;BME280;50131;52.084;5.228;2022-07-23T00:33:56;102026.0;;;15.98;82.98
63956;BME280;50131;52.084;5.228;2022-07-23T00:35:43;102026.0;;;15.95;83.83
63956;BME280;50131;52.084;5.228;2022-07-23T00:37:30;102028.0;;;15.96;83.98
63956;BME280;50131;52.084;5.228;2022-07-23T00:39:17;102030.0;;;15.92;84.14
63956;BME280;50131;52.084;5.228;2022-07-23T00:41:04;102030.0;;;15.92;83.19
63956;BME280;50131;52.084;5.228;2022-07-23T00:44:37;102030.0;;;15.9;82.61
63956;BME280;50131;52.084;5.228;2022-07-23T00:46:25;102021.0;;;15.87;82.26
63956;BME280;50131;52.084;5.228;2022-07-23T00:48:11;102023.0;;;15.88;81.89
63956;BME280;50131;52.084;5.228;2022-07-23T00:49:57;102023.0;;;15.81;81.83
63956;BME280;50131;52.084;5.228;2022-07-23T00:51:45;102020.0;;;15.79;81.5
63956;BME280;50131;52.084;5.228;2022-07-23T00:53:32;102021.0;;;15.78;81.75
63956;BME280;50131;52.084;5.228;2022-07-23T00:57:05;102017.0;;;15.75;83.33
63956;BME280;50131;52.084;5.228;2022-07-23T00:58:52;102020.0;;;15.66;82.2
63956;BME280;50131;52.084;5.228;2022-07-23T01:00:38;102020.0;;;15.63;82.98
63956;BME280;50131;52.084;5.228;2022-07-23T01:02:23;102013.0;;;15.7;82.85
63956;BME280;50131;52.084;5.228;2022-07-23T01:04:11;102007.0;;;15.69;83.45
63956;BME280;50131;52.084;5.228;2022-07-23T01:07:45;102009.0;;;15.66;83.63
63956;BME280;50131;52.084;5.228;2022-07-23T01:09:32;102009.0;;;15.63;84.16
63956;BME280;50131;52.084;5.228;2022-07-23T01:11:19;102005.0;;;15.73;83.61
63956;BME280;50131;52.084;5.228;2022-07-23T01:13:07;102005.0;;;15.74;83.65
63956;BME280;50131;52.084;5.228;2022-07-23T01:14:56;102001.0;;;15.73;83.25
63956;BME280;50131;52.084;5.228;2022-07-23T01:16:45;101996.0;;;15.66;84.01
63956;BME280;50131;52.084;5.228;2022-07-23T01:20:20;101996.0;;;15.6;85.41
63956;BME280;50131;52.084;5.228;2022-07-23T01:22:07;101993.0;;;15.57;85.26
63956;BME280;50131;52.084;5.228;2022-07-23T01:23:54;101988.0;;;15.5;84.72
63956;BME280;50131;52.084;5.228;2022-07-23T01:25:47;101989.0;;;15.47;85.22
63956;BME280;50131;52.084;5.228;2022-07-23T01:27:33;101986.0;;;15.48;85.26
63956;BME280;50131;52.084;5.228;2022-07-23T01:29:21;101987.0;;;15.6;84.64
63956;BME280;50131;52.084;5.228;2022-07-23T01:32:54;101988.0;;;15.57;84.05
63956;BME280;50131;52.084;5.228;2022-07-23T01:34:41;101987.0;;;15.5;83.14
63956;BME280;50131;52.084;5.228;2022-07-23T01:36:27;101989.0;;;15.45;82.92
63956;BME280;50131;52.084;5.228;2022-07-23T01:38:14;101992.0;;;15.43;83.75
63956;BME280;50131;52.084;5.228;2022-07-23T01:40:01;101988.0;;;15.56;83.16
63956;BME280;50131;52.084;5.228;2022-07-23T01:41:49;101989.0;;;15.47;82.68
63956;BME280;50131;52.084;5.228;2022-07-23T01:45:21;101995.0;;;15.37;82.94
63956;BME280;50131;52.084;5.228;2022-07-23T01:47:08;101997.0;;;15.26;83.52
63956;BME280;50131;52.084;5.228;2022-07-23T01:48:54;101998.0;;;15.43;82.98
63956;BME280;50131;52.084;5.228;2022-07-23T01:50:40;101996.0;;;15.38;83.16
63956;BME280;50131;52.084;5.228;2022-07-23T01:52:27;101991.0;;;15.36;83.45
63956;BME280;50131;52.084;5.228;2022-07-23T01:54:13;101990.0;;;15.28;84.2
63956;BME280;50131;52.084;5.228;2022-07-23T01:57:46;101991.0;;;15.25;85.02
63956;BME280;50131;52.084;5.228;2022-07-23T01:59:34;101993.0;;;15.27;84.89
63956;BME280;50131;52.084;5.228;2022-07-23T02:01:21;101994.0;;;15.23;84.89
63956;BME280;50131;52.084;5.228;2022-07-23T02:03:08;101992.0;;;15.24;85.11
63956;BME280;50131;52.084;5.228;2022-07-23T02:04:54;101993.0;;;15.3;84.53
63956;BME280;50131;52.084;5.228;2022-07-23T02:08:26;101990.0;;;15.24;84.46
63956;BME280;50131;52.084;5.228;2022-07-23T02:10:12;101988.0;;;15.21;85.57
63956;BME280;50131;52.084;5.228;2022-07-23T02:11:59;101985.0;;;15.19;86.35
63956;BME280;50131;52.084;5.228;2022-07-23T02:13:45;101987.0;;;15.16;86.7
63956;BME280;50131;52.084;5.228;2022-07-23T02:15:31;101995.0;;;15.16;85.8
63956;BME280;50131;52.084;5.228;2022-07-23T02:17:18;101990.0;;;15.13;86.07
63956;BME280;50131;52.084;5.228;2022-07-23T02:20:51;101985.0;;;15.16;85.46
63956;BME280;50131;52.084;5.228;2022-07-23T02:22:38;101990.0;;;15.07;85.91
63956;BME280;50131;52.084;5.228;2022-07-23T02:24:25;101993.0;;;15.11;85.88
63956;BME280;50131;52.084;5.228;2022-07-23T02:26:11;101990.0;;;15.12;86.57
63956;BME280;50131;52.084;5.228;2022-07-23T02:27:57;101993.0;;;15.19;85.63
63956;BME280;50131;52.084;5.228;2022-07-23T02:29:43;101996.0;;;15.11;85.14
63956;BME280;50131;52.084;5.228;2022-07-23T02:33:18;101995.0;;;15.03;85.41
63956;BME280;50131;52.084;5.228;2022-07-23T02:35:05;101988.0;;;14.99;87.88
63956;BME280;50131;52.084;5.228;2022-07-23T02:36:52;101983.0;;;14.97;88.0
63956;BME280;50131;52.084;5.228;2022-07-23T02:38:38;101988.0;;;15.02;87.65
63956;BME280;50131;52.084;5.228;2022-07-23T02:40:25;101990.0;;;15.01;86.93
63956;BME280;50131;52.084;5.228;2022-07-23T02:43:58;101990.0;;;14.99;86.15
63956;BME280;50131;52.084;5.228;2022-07-23T02:45:44;101994.0;;;14.91;85.81
63956;BME280;50131;52.084;5.228;2022-07-23T02:47:32;101997.0;;;14.9;85.91
63956;BME280;50131;52.084;5.228;2022-07-23T02:49:18;101996.0;;;14.83;85.82
63956;BME280;50131;52.084;5.228;2022-07-23T02:51:05;101996.0;;;14.82;87.03
63956;BME280;50131;52.084;5.228;2022-07-23T02:52:52;101998.0;;;14.89;87.08
63956;BME280;50131;52.084;5.228;2022-07-23T02:56:25;102009.0;;;14.88;85.76
63956;BME280;50131;52.084;5.228;2022-07-23T02:58:11;102011.0;;;14.8;85.99
63956;BME280;50131;52.084;5.228;2022-07-23T02:59:57;102008.0;;;14.77;86.15
63956;BME280;50131;52.084;5.228;2022-07-23T03:01:44;102009.0;;;14.79;86.73
63956;BME280;50131;52.084;5.228;2022-07-23T03:03:31;102008.0;;;14.77;86.88
63956;BME280;50131;52.084;5.228;2022-07-23T03:05:17;102005.0;;;14.76;88.69
63956;BME280;50131;52.084;5.228;2022-07-23T03:08:49;102005.0;;;14.74;88.73
63956;BME280;50131;52.084;5.228;2022-07-23T03:10:35;102010.0;;;14.77;88.47
63956;BME280;50131;52.084;5.228;2022-07-23T03:12:21;102014.0;;;14.93;87.37
63956;BME280;50131;52.084;5.228;2022-07-23T03:14:07;102015.0;;;14.83;86.57
63956;BME280;50131;52.084;5.228;2022-07-23T03:15:54;102015.0;;;14.81;86.76
63956;BME280;50131;52.084;5.228;2022-07-23T03:19:26;102018.0;;;14.73;88.45
63956;BME280;50131;52.084;5.228;2022-07-23T03:21:13;102019.0;;;14.75;88.62
63956;BME280;50131;52.084;5.228;2022-07-23T03:22:59;102020.0;;;14.78;88.32
63956;BME280;50131;52.084;5.228;2022-07-23T03:25:01;102022.0;;;14.75;88.37
63956;BME280;50131;52.084;5.228;2022-07-23T03:26:48;102023.0;;;14.75;88.05
63956;BME280;50131;52.084;5.228;2022-07-23T03:28:34;102026.0;;;14.73;87.95
63956;BME280;50131;52.084;5.228;2022-07-23T03:32:07;102033.0;;;14.75;87.45
63956;BME280;50131;52.084;5.228;2022-07-23T03:33:54;102035.0;;;14.64;86.55
63956;BME280;50131;52.084;5.228;2022-07-23T03:39:53;102038.0;;;14.57;87.43
63956;BME280;50131;52.084;5.228;2022-07-23T03:41:39;102030.0;;;14.55;89.41
63956;BME280;50131;52.084;5.228;2022-07-23T03:43:25;102031.0;;;14.57;88.58
63956;BME280;50131;52.084;5.228;2022-07-23T03:45:12;102024.0;;;14.65;88.75
63956;BME280;50131;52.084;5.228;2022-07-23T03:48:46;102024.0;;;14.62;88.8
63956;BME280;50131;52.084;5.228;2022-07-23T03:50:32;102025.0;;;14.6;88.86
63956;BME280;50131;52.084;5.228;2022-07-23T03:52:19;102020.0;;;14.62;88.37
63956;BME280;50131;52.084;5.228;2022-07-23T03:54:06;102018.0;;;14.63;88.35
63956;BME280;50131;52.084;5.228;2022-07-23T03:55:52;102018.0;;;14.62;88.95
63956;BME280;50131;52.084;5.228;2022-07-23T03:57:39;102010.0;;;14.62;88.91
63956;BME280;50131;52.084;5.228;2022-07-23T04:01:12;102009.0;;;14.6;88.15
63956;BME280;50131;52.084;5.228;2022-07-23T04:03:00;102005.0;;;14.56;88.65
63956;BME280;50131;52.084;5.228;2022-07-23T04:04:46;102006.0;;;14.58;88.82
63956;BME280;50131;52.084;5.228;2022-07-23T04:06:34;102009.0;;;14.6;88.18
63956;BME280;50131;52.084;5.228;2022-07-23T04:08:21;102007.0;;;14.61;88.73
63956;BME280;50131;52.084;5.228;2022-07-23T04:10:08;102009.0;;;14.65;88.31
63956;BME280;50131;52.084;5.228;2022-07-23T04:13:41;102014.0;;;14.64;88.43
63956;BME280;50131;52.084;5.228;2022-07-23T04:15:28;102015.0;;;14.66;88.35
63956;BME280;50131;52.084;5.228;2022-07-23T04:17:14;102014.0;;;14.65;87.5
63956;BME280;50131;52.084;5.228;2022-07-23T04:19:00;102017.0;;;14.63;87.72
63956;BME280;50131;52.084;5.228;2022-07-23T04:20:48;102016.0;;;14.63;87.51
63956;BME280;50131;52.084;5.228;2022-07-23T04:24:20;102016.0;;;14.65;87.34
63956;BME280;50131;52.084;5.228;2022-07-23T04:26:06;102015.0;;;14.61;87.59
63956;BME280;50131;52.084;5.228;2022-07-23T04:27:53;102015.0;;;14.57;87.77
63956;BME280;50131;52.084;5.228;2022-07-23T04:29:39;102014.0;;;14.6;88.58
63956;BME280;50131;52.084;5.228;2022-07-23T04:31:25;102015.0;;;14.59;89.9
63956;BME280;50131;52.084;5.228;2022-07-23T04:33:11;102019.0;;;14.7;88.64
63956;BME280;50131;52.084;5.228;2022-07-23T04:36:45;102014.0;;;14.78;87.83
63956;BME280;50131;52.084;5.228;2022-07-23T04:38:32;102018.0;;;14.86;87.14
63956;BME280;50131;52.084;5.228;2022-07-23T04:40:19;102020.0;;;14.77;87.09
63956;BME280;50131;52.084;5.228;2022-07-23T04:42:06;102028.0;;;14.74;87.27
63956;BME280;50131;52.084;5.228;2022-07-23T04:43:52;102024.0;;;14.72;87.79
63956;BME280;50131;52.084;5.228;2022-07-23T04:47:26;102025.0;;;14.73;88.3
63956;BME280;50131;52.084;5.228;2022-07-23T04:49:12;102020.0;;;14.77;88.83
63956;BME280;50131;52.084;5.228;2022-07-23T04:50:58;102030.0;;;14.82;88.32
63956;BME280;50131;52.084;5.228;2022-07-23T04:52:45;102034.0;;;14.86;87.95
63956;BME280;50131;52.084;5.228;2022-07-23T04:54:31;102035.0;;;14.87;87.38
63956;BME280;50131;52.084;5.228;2022-07-23T04:56:18;102036.0;;;14.78;87.14
63956;BME280;50131;52.084;5.228;2022-07-23T04:59:50;102033.0;;;14.84;87.25
63956;BME280;50131;52.084;5.228;2022-07-23T05:01:37;102032.0;;;14.86;88.0
63956;BME280;50131;52.084;5.228;2022-07-23T05:03:23;102030.0;;;14.94;87.41
63956;BME280;50131;52.084;5.228;2022-07-23T05:05:09;102031.0;;;15.01;87.13
63956;BME280;50131;52.084;5.228;2022-07-23T05:06:56;102033.0;;;15.0;87.17
63956;BME280;50131;52.084;5.228;2022-07-23T05:08:43;102033.0;;;15.0;87.57
63956;BME280;50131;52.084;5.228;2022-07-23T05:12:16;102030.0;;;15.09;87.9
63956;BME280;50131;52.084;5.228;2022-07-23T05:14:04;102033.0;;;15.16;87.85
63956;BME280;50131;52.084;5.228;2022-07-23T05:15:50;102035.0;;;15.19;88.29
63956;BME280;50131;52.084;5.228;2022-07-23T05:17:37;102040.0;;;15.2;87.81
63956;BME280;50131;52.084;5.228;2022-07-23T05:19:23;102036.0;;;15.21;87.56
63956;BME280;50131;52.084;5.228;2022-07-23T05:22:56;102039.0;;;15.33;87.32
63956;BME280;50131;52.084;5.228;2022-07-23T05:24:43;102042.0;;;15.33;87.31
63956;BME280;50131;52.084;5.228;2022-07-23T05:26:29;102044.0;;;15.35;87.57
63956;BME280;50131;52.084;5.228;2022-07-23T05:28:15;102050.0;;;15.36;87.58
63956;BME280;50131;52.084;5.228;2022-07-23T05:30:02;102047.0;;;15.42;87.59
63956;BME280;50131;52.084;5.228;2022-07-23T05:31:49;102047.0;;;15.5;87.55
63956;BME280;50131;52.084;5.228;2022-07-23T05:35:21;102049.0;;;15.6;87.33
63956;BME280;50131;52.084;5.228;2022-07-23T05:37:07;102050.0;;;15.68;87.28
63956;BME280;50131;52.084;5.228;2022-07-23T05:38:54;102051.0;;;15.84;86.55
63956;BME280;50131;52.084;5.228;2022-07-23T05:40:40;102049.0;;;15.9;86.16
63956;BME280;50131;52.084;5.228;2022-07-23T05:42:26;102051.0;;;15.93;86.28
63956;BME280;50131;52.084;5.228;2022-07-23T05:45:59;102055.0;;;15.94;85.69
63956;BME280;50131;52.084;5.228;2022-07-23T05:47:46;102055.0;;;15.99;84.64
63956;BME280;50131;52.084;5.228;2022-07-23T05:49:36;102056.0;;;16.04;83.72
63956;BME280;50131;52.084;5.228;2022-07-23T05:51:24;102063.0;;;16.11;83.28
63956;BME280;50131;52.084;5.228;2022-07-23T05:53:12;102066.0;;;16.11;83.76
63956;BME280;50131;52.084;5.228;2022-07-23T05:54:59;102067.0;;;16.12;83.16
63956;BME280;50131;52.084;5.228;2022-07-23T05:58:32;102066.0;;;16.18;82.78
63956;BME280;50131;52.084;5.228;2022-07-23T06:00:18;102068.0;;;16.22;81.55
63956;BME280;50131;52.084;5.228;2022-07-23T06:02:05;102062.0;;;16.27;81.8
63956;BME280;50131;52.084;5.228;2022-07-23T06:03:51;102066.0;;;16.36;81.66
63956;BME280;50131;52.084;5.228;2022-07-23T06:05:37;102066.0;;;16.41;81.3
63956;BME280;50131;52.084;5.228;2022-07-23T06:07:23;102074.0;;;16.43;80.52
63956;BME280;50131;52.084;5.228;2022-07-23T06:10:57;102071.0;;;16.45;80.3
63956;BME280;50131;52.084;5.228;2022-07-23T06:12:45;102071.0;;;16.56;79.36
63956;BME280;50131;52.084;5.228;2022-07-23T06:14:32;102070.0;;;16.61;79.61
63956;BME280;50131;52.084;5.228;2022-07-23T06:16:22;102068.0;;;16.64;79.59
63956;BME280;50131;52.084;5.228;2022-07-23T06:18:08;102066.0;;;16.77;80.05
63956;BME280;50131;52.084;5.228;2022-07-23T06:19:55;102058.0;;;16.78;79.0
63956;BME280;50131;52.084;5.228;2022-07-23T06:23:29;102065.0;;;16.81;78.66
63956;BME280;50131;52.084;5.228;2022-07-23T06:25:16;102066.0;;;16.93;79.45
63956;BME280;50131;52.084;5.228;2022-07-23T06:27:02;102067.0;;;16.97;77.88
63956;BME280;50131;52.084;5.228;2022-07-23T06:28:49;102071.0;;;16.95;76.52
63956;BME280;50131;52.084;5.228;2022-07-23T06:30:35;102067.0;;;17.12;75.98
63956;BME280;50131;52.084;5.228;2022-07-23T06:34:08;102070.0;;;17.21;78.22
63956;BME280;50131;52.084;5.228;2022-07-23T06:35:54;102068.0;;;17.2;75.38
63956;BME280;50131;52.084;5.228;2022-07-23T06:37:40;102070.0;;;17.21;74.55
63956;BME280;50131;52.084;5.228;2022-07-23T06:39:26;102066.0;;;17.22;75.55
63956;BME280;50131;52.084;5.228;2022-07-23T06:41:12;102063.0;;;17.34;74.31
63956;BME280;50131;52.084;5.228;2022-07-23T06:42:59;102072.0;;;17.38;75.89
63956;BME280;50131;52.084;5.228;2022-07-23T06:46:31;102069.0;;;17.43;75.75
63956;BME280;50131;52.084;5.228;2022-07-23T06:48:19;102068.0;;;17.45;75.91
63956;BME280;50131;52.084;5.228;2022-07-23T06:50:06;102062.0;;;17.5;72.97
63956;BME280;50131;52.084;5.228;2022-07-23T06:51:52;102063.0;;;17.52;73.64
63956;BME280;50131;52.084;5.228;2022-07-23T06:53:38;102067.0;;;17.53;73.49
63956;BME280;50131;52.084;5.228;2022-07-23T06:55:24;102070.0;;;17.55;73.5
63956;BME280;50131;52.084;5.228;2022-07-23T06:58:57;102074.0;;;17.56;71.7
63956;BME280;50131;52.084;5.228;2022-07-23T07:00:43;102084.0;;;17.59;72.42
63956;BME280;50131;52.084;5.228;2022-07-23T07:02:29;102082.0;;;17.72;73.39
63956;BME280;50131;52.084;5.228;2022-07-23T07:04:15;102081.0;;;17.84;73.72
63956;BME280;50131;52.084;5.228;2022-07-23T07:06:02;102078.0;;;17.89;72.98
63956;BME280;50131;52.084;5.228;2022-07-23T07:09:35;102080.0;;;18.02;74.49
63956;BME280;50131;52.084;5.228;2022-07-23T07:11:21;102086.0;;;18.09;72.87
63956;BME280;50131;52.084;5.228;2022-07-23T07:13:07;102087.0;;;18.09;72.7
63956;BME280;50131;52.084;5.228;2022-07-23T07:14:53;102087.0;;;18.18;72.55
63956;BME280;50131;52.084;5.228;2022-07-23T07:16:41;102085.0;;;18.13;71.14
63956;BME280;50131;52.084;5.228;2022-07-23T07:18:28;102086.0;;;18.18;71.8
63956;BME280;50131;52.084;5.228;2022-07-23T07:22:01;102093.0;;;18.27;70.56
63956;BME280;50131;52.084;5.228;2022-07-23T07:23:48;102093.0;;;18.28;68.77
63956;BME280;50131;52.084;5.228;2022-07-23T07:25:34;102094.0;;;18.34;66.55
63956;BME280;50131;52.084;5.228;2022-07-23T07:27:22;102090.0;;;18.41;67.87
63956;BME280;50131;52.084;5.228;2022-07-23T07:29:08;102098.0;;;18.46;70.38
63956;BME280;50131;52.084;5.228;2022-07-23T07:32:41;102095.0;;;18.61;69.03
63956;BME280;50131;52.084;5.228;2022-07-23T07:34:28;102094.0;;;18.75;67.3
63956;BME280;50131;52.084;5.228;2022-07-23T07:36:14;102099.0;;;18.7;67.91
63956;BME280;50131;52.084;5.228;2022-07-23T07:38:01;102093.0;;;18.7;66.5
63956;BME280;50131;52.084;5.228;2022-07-23T07:39:47;102097.0;;;18.77;67.67
63956;BME280;50131;52.084;5.228;2022-07-23T07:41:33;102099.0;;;18.84;67.63
63956;BME280;50131;52.084;5.228;2022-07-23T07:45:07;102096.0;;;18.95;69.0
63956;BME280;50131;52.084;5.228;2022-07-23T07:46:54;102098.0;;;19.04;66.55
63956;BME280;50131;52.084;5.228;2022-07-23T07:48:40;102097.0;;;19.09;64.28
63956;BME280;50131;52.084;5.228;2022-07-23T07:50:27;102096.0;;;19.11;65.91
63956;BME280;50131;52.084;5.228;2022-07-23T07:52:13;102096.0;;;19.09;66.39
63956;BME280;50131;52.084;5.228;2022-07-23T07:53:59;102095.0;;;19.02;65.78
63956;BME280;50131;52.084;5.228;2022-07-23T07:57:34;102100.0;;;19.11;66.8
63956;BME280;50131;52.084;5.228;2022-07-23T07:59:21;102103.0;;;19.09;67.25
63956;BME280;50131;52.084;5.228;2022-07-23T08:01:07;102109.0;;;19.16;67.83
63956;BME280;50131;52.084;5.228;2022-07-23T08:02:54;102111.0;;;19.27;66.25
63956;BME280;50131;52.084;5.228;2022-07-23T08:04:40;102110.0;;;19.27;64.33
63956;BME280;50131;52.084;5.228;2022-07-23T08:08:14;102109.0;;;19.36;64.23
63956;BME280;50131;52.084;5.228;2022-07-23T08:10:01;102112.0;;;19.43;66.41
63956;BME280;50131;52.084;5.228;2022-07-23T08:11:48;102108.0;;;19.56;63.63
63956;BME280;50131;52.084;5.228;2022-07-23T08:13:37;102110.0;;;19.61;63.71
63956;BME280;50131;52.084;5.228;2022-07-23T08:15:25;102109.0;;;19.66;63.54
63956;BME280;50131;52.084;5.228;2022-07-23T08:17:12;102109.0;;;19.56;63.49
63956;BME280;50131;52.084;5.228;2022-07-23T08:20:44;102112.0;;;19.61;61.91
63956;BME280;50131;52.084;5.228;2022-07-23T08:22:47;102116.0;;;19.59;62.74
63956;BME280;50131;52.084;5.228;2022-07-23T08:24:37;102117.0;;;19.66;62.82
63956;BME280;50131;52.084;5.228;2022-07-23T08:26:23;102117.0;;;19.66;60.64
63956;BME280;50131;52.084;5.228;2022-07-23T08:28:12;102111.0;;;19.8;59.37
63956;BME280;50131;52.084;5.228;2022-07-23T08:29:59;102112.0;;;19.91;58.15
63956;BME280;50131;52.084;5.228;2022-07-23T08:31:45;102113.0;;;19.89;59.62
63956;BME280;50131;52.084;5.228;2022-07-23T08:35:23;102115.0;;;19.89;62.05
63956;BME280;50131;52.084;5.228;2022-07-23T08:37:09;102116.0;;;19.98;58.91
63956;BME280;50131;52.084;5.228;2022-07-23T08:38:56;102116.0;;;20.03;58.4
63956;BME280;50131;52.084;5.228;2022-07-23T08:40:44;102112.0;;;20.0;58.68
63956;BME280;50131;52.084;5.228;2022-07-23T08:42:31;102113.0;;;20.12;55.77
63956;BME280;50131;52.084;5.228;2022-07-23T08:44:19;102105.0;;;20.28;56.51
63956;BME280;50131;52.084;5.228;2022-07-23T08:47:53;102111.0;;;20.16;58.52
63956;BME280;50131;52.084;5.228;2022-07-23T08:49:41;102107.0;;;20.13;59.73
63956;BME280;50131;52.084;5.228;2022-07-23T08:51:28;102115.0;;;20.21;59.15
63956;BME280;50131;52.084;5.228;2022-07-23T08:53:15;102111.0;;;20.36;59.34
63956;BME280;50131;52.084;5.228;2022-07-23T08:55:03;102116.0;;;20.34;61.01
63956;BME280;50131;52.084;5.228;2022-07-23T08:56:50;102117.0;;;20.27;58.59
63956;BME280;50131;52.084;5.228;2022-07-23T09:00:24;102116.0;;;20.32;59.29
63956;BME280;50131;52.084;5.228;2022-07-23T09:02:12;102119.0;;;20.41;59.91
63956;BME280;50131;52.084;5.228;2022-07-23T09:03:58;102117.0;;;20.45;57.76
63956;BME280;50131;52.084;5.228;2022-07-23T09:05:45;102120.0;;;20.45;56.66
63956;BME280;50131;52.084;5.228;2022-07-23T09:07:32;102119.0;;;20.52;57.31
63956;BME280;50131;52.084;5.228;2022-07-23T09:09:20;102115.0;;;20.45;59.05
63956;BME280;50131;52.084;5.228;2022-07-23T09:12:57;102115.0;;;20.47;57.56
63956;BME280;50131;52.084;5.228;2022-07-23T09:14:46;102117.0;;;20.7;57.08
63956;BME280;50131;52.084;5.228;2022-07-23T09:16:33;102116.0;;;20.7;58.6
63956;BME280;50131;52.084;5.228;2022-07-23T09:18:28;102117.0;;;20.71;54.27
63956;BME280;50131;52.084;5.228;2022-07-23T09:20:16;102121.0;;;20.76;54.95
63956;BME280;50131;52.084;5.228;2022-07-23T09:22:17;102116.0;;;20.8;59.48
63956;BME280;50131;52.084;5.228;2022-07-23T09:24:10;102119.0;;;20.86;57.54
63956;BME280;50131;52.084;5.228;2022-07-23T09:27:52;102118.0;;;20.91;57.18
63956;BME280;50131;52.084;5.228;2022-07-23T09:29:55;102118.0;;;20.98;54.75
63956;BME280;50131;52.084;5.228;2022-07-23T09:31:46;102118.0;;;21.15;54.53
63956;BME280;50131;52.084;5.228;2022-07-23T09:33:32;102120.0;;;21.18;53.42
63956;BME280;50131;52.084;5.228;2022-07-23T09:35:19;102121.0;;;21.3;53.67
63956;BME280;50131;52.084;5.228;2022-07-23T09:37:10;102121.0;;;21.21;51.91
63956;BME280;50131;52.084;5.228;2022-07-23T09:38:57;102120.0;;;21.36;53.86
63956;BME280;50131;52.084;5.228;2022-07-23T09:40:44;102125.0;;;21.42;53.23
63956;BME280;50131;52.084;5.228;2022-07-23T09:44:20;102124.0;;;21.43;54.77
63956;BME280;50131;52.084;5.228;2022-07-23T09:46:24;102123.0;;;21.51;52.28
63956;BME280;50131;52.084;5.228;2022-07-23T09:48:13;102126.0;;;21.5;52.38
63956;BME280;50131;52.084;5.228;2022-07-23T09:50:02;102124.0;;;21.51;52.73
63956;BME280;50131;52.084;5.228;2022-07-23T09:51:52;102128.0;;;21.52;53.58
63956;BME280;50131;52.084;5.228;2022-07-23T09:53:40;102127.0;;;21.64;54.14
63956;BME280;50131;52.084;5.228;2022-07-23T09:55:31;102127.0;;;21.74;52.45
63956;BME280;50131;52.084;5.228;2022-07-23T09:59:04;102123.0;;;21.74;53.1
63956;BME280;50131;52.084;5.228;2022-07-23T10:00:53;102121.0;;;21.88;51.87
63956;BME280;50131;52.084;5.228;2022-07-23T10:02:40;102120.0;;;21.96;51.87
63956;BME280;50131;52.084;5.228;2022-07-23T10:04:28;102122.0;;;22.0;52.12
63956;BME280;50131;52.084;5.228;2022-07-23T10:06:16;102122.0;;;21.96;52.15
63956;BME280;50131;52.084;5.228;2022-07-23T10:08:03;102118.0;;;22.05;51.84
63956;BME280;50131;52.084;5.228;2022-07-23T10:11:38;102123.0;;;22.12;50.02
63956;BME280;50131;52.084;5.228;2022-07-23T10:13:50;102121.0;;;22.25;50.8
63956;BME280;50131;52.084;5.228;2022-07-23T10:15:46;102124.0;;;22.2;50.03
63956;BME280;50131;52.084;5.228;2022-07-23T10:17:33;102118.0;;;22.15;51.87
63956;BME280;50131;52.084;5.228;2022-07-23T10:19:21;102118.0;;;22.14;51.83
63956;BME280;50131;52.084;5.228;2022-07-23T10:21:09;102118.0;;;22.18;51.8
63956;BME280;50131;52.084;5.228;2022-07-23T10:23:02;102114.0;;;22.16;52.35
63956;BME280;50131;52.084;5.228;2022-07-23T10:24:58;102115.0;;;22.33;50.53
63956;BME280;50131;52.084;5.228;2022-07-23T10:26:57;102119.0;;;22.47;51.99
63956;BME280;50131;52.084;5.228;2022-07-23T10:29:06;102120.0;;;22.36;50.11
63956;BME280;50131;52.084;5.228;2022-07-23T10:31:02;102112.0;;;22.45;49.93
63956;BME280;50131;52.084;5.228;2022-07-23T10:35:08;102111.0;;;22.64;49.22
63956;BME280;50131;52.084;5.228;2022-07-23T10:37:07;102108.0;;;22.73;48.72
63956;BME280;50131;52.084;5.228;2022-07-23T10:39:05;102110.0;;;22.78;48.21
63956;BME280;50131;52.084;5.228;2022-07-23T10:40:58;102110.0;;;22.79;48.79
63956;BME280;50131;52.084;5.228;2022-07-23T10:42:48;102105.0;;;22.8;48.84
63956;BME280;50131;52.084;5.228;2022-07-23T10:44:39;102105.0;;;22.82;50.83
63956;BME280;50131;52.084;5.228;2022-07-23T10:46:29;102103.0;;;22.84;49.24
63956;BME280;50131;52.084;5.228;2022-07-23T10:48:18;102108.0;;;22.93;49.64
63956;BME280;50131;52.084;5.228;2022-07-23T10:50:18;102106.0;;;23.01;47.05
63956;BME280;50131;52.084;5.228;2022-07-23T10:52:20;102100.0;;;23.06;47.51
63956;BME280;50131;52.084;5.228;2022-07-23T10:54:20;102100.0;;;23.06;46.83
63956;BME280;50131;52.084;5.228;2022-07-23T10:56:07;102099.0;;;23.16;50.33
63956;BME280;50131;52.084;5.228;2022-07-23T11:00:16;102100.0;;;23.09;49.71
63956;BME280;50131;52.084;5.228;2022-07-23T11:02:34;102098.0;;;23.1;46.37
63956;BME280;50131;52.084;5.228;2022-07-23T11:04:47;102098.0;;;23.21;47.58
63956;BME280;50131;52.084;5.228;2022-07-23T11:07:07;102097.0;;;23.24;48.93
63956;BME280;50131;52.084;5.228;2022-07-23T11:09:24;102099.0;;;23.16;47.66
63956;BME280;50131;52.084;5.228;2022-07-23T11:11:11;102094.0;;;23.21;44.4